CheckWX is a tool to help pilots better visualize weather data.  It is not intended as a substitute for an official pre-flight weather briefing.

00:09:30 UTC

EGGD METAR
Bristol International Airport
Bristol, United Kingdom
Current

20 mins ago

EGGD 222350Z AUTO 16003KT 9999 NCD 09/08 Q1020
Observed
Oct-22 @ 23:50 UTC
Wind
  • 160° at 3 KTS
Visibility
10,000+ meters
Flight Rules
VFR
Cloud Levels
  • Clear skies
Temperature
C / 48°F
Dewpoint
C / 46°F
Humidity
94%
Altimeter
30.12" Hg
Pressure
1019.92 hPa
Previous

50 mins ago

EGGD 222320Z AUTO 18004KT 9999 NCD 08/07 Q1020
Observed
Oct-22 @ 23:20 UTC
Wind
  • 180° at 4 KTS
Visibility
10,000+ meters
Flight Rules
VFR
Cloud Levels
  • Clear skies
Temperature
C / 46°F
Dewpoint
C / 45°F
Humidity
93%
Altimeter
30.12" Hg
Pressure
1019.92 hPa
Previous

1 hour ago

EGGD 222250Z AUTO 21003KT 9999 NCD 09/07 Q1020
Observed
Oct-22 @ 22:50 UTC
Wind
  • 210° at 3 KTS
Visibility
10,000+ meters
Flight Rules
VFR
Cloud Levels
  • Clear skies
Temperature
C / 48°F
Dewpoint
C / 45°F
Humidity
87%
Altimeter
30.12" Hg
Pressure
1019.92 hPa